Time;durP1;ratioP1;P1;durP2;ratioP2;P2;SDS_P1;SDS_P2;PMS_P1;PMS_P2;Temp;Humidity;BMP_temperature;BMP_pressure;BME280_temperature;BME280_humidity;BME280_pressure;Samples;Min_cycle;Max_cycle;Signal;HPM_P1;HPM_P2
2022/10/10 00:00:52;;;;;;;4.30;3.08;;;8.70;99.90;;;;;;5113510;28;20056;-59
2022/10/10 00:03:19;;;;;;;6.90;3.17;;;8.70;99.90;;;;;;5113321;28;20096;-59
2022/10/10 00:05:47;;;;;;;7.07;3.47;;;8.70;99.90;;;;;;5113388;28;20044;-59
2022/10/10 00:08:14;;;;;;;6.72;3.03;;;8.60;99.90;;;;;;5094976;28;20051;-60
2022/10/10 00:10:40;;;;;;;5.43;3.00;;;8.60;99.90;;;;;;5113998;28;20051;-60
2022/10/10 00:13:07;;;;;;;5.95;3.22;;;8.60;99.90;;;;;;5113459;28;20533;-60
2022/10/10 00:15:34;;;;;;;4.78;3.83;;;8.60;99.90;;;;;;5112738;28;20047;-59
2022/10/10 00:18:02;;;;;;;6.28;3.55;;;8.60;99.90;;;;;;5094716;28;20052;-59
2022/10/10 00:20:29;;;;;;;5.70;3.30;;;8.60;99.90;;;;;;5113395;28;20048;-59
2022/10/10 00:22:56;;;;;;;9.23;3.80;;;8.60;99.90;;;;;;5094666;28;20051;-59
2022/10/10 00:25:23;;;;;;;5.85;3.60;;;8.60;99.90;;;;;;5094892;28;20105;-59
2022/10/10 00:27:50;;;;;;;5.45;2.95;;;8.60;99.90;;;;;;5112538;28;20052;-59
2022/10/10 00:30:17;;;;;;;6.93;3.65;;;8.60;99.90;;;;;;5112932;28;20055;-59
2022/10/10 00:32:44;;;;;;;5.55;3.00;;;8.60;99.90;;;;;;5113424;28;20529;-60
2022/10/10 00:35:12;;;;;;;4.68;3.17;;;9.20;99.90;;;;;;5112858;28;20184;-60
2022/10/10 00:37:39;;;;;;;4.95;3.25;;;8.60;99.90;;;;;;5095078;28;20055;-60
2022/10/10 00:40:07;;;;;;;6.65;3.20;;;8.50;99.90;;;;;;5095255;28;20067;-58
2022/10/10 00:42:34;;;;;;;6.47;3.50;;;8.50;99.90;;;;;;5092907;28;20112;-59
2022/10/10 00:45:22;;;;;;;7.05;3.65;;;8.50;99.90;;;;;;5111937;28;20047;-59
2022/10/10 00:47:51;;;;;;;7.78;3.38;;;8.50;99.90;;;;;;5094465;28;20097;-59
2022/10/10 00:50:22;;;;;;;6.05;3.25;;;8.50;99.90;;;;;;5112862;28;20055;-60
2022/10/10 00:52:50;;;;;;;5.00;3.38;;;8.50;99.90;;;;;;5094868;28;20097;-59
2022/10/10 00:55:17;;;;;;;6.35;3.47;;;8.50;99.90;;;;;;5094699;28;20051;-59
2022/10/10 00:57:44;;;;;;;9.23;3.67;;;8.50;99.90;;;;;;5094367;28;20112;-60
2022/10/10 01:00:12;;;;;;;7.30;3.53;;;8.50;99.90;;;;;;5095017;28;20052;-59
2022/10/10 01:02:39;;;;;;;6.45;3.28;;;8.50;99.90;;;;;;5094359;28;20044;-60
2022/10/10 01:05:06;;;;;;;4.95;3.38;;;8.50;99.90;;;;;;5094670;28;20055;-60
2022/10/10 01:07:34;;;;;;;5.50;3.42;;;8.40;99.90;;;;;;5112459;28;20120;-60
2022/10/10 01:10:04;;;;;;;7.30;3.70;;;8.50;99.90;;;;;;5093676;28;20048;-59
2022/10/10 01:12:40;;;;;;;7.20;3.58;;;8.40;99.90;;;;;;5113096;28;20056;-59
2022/10/10 01:15:13;;;;;;;6.32;3.20;;;8.40;99.90;;;;;;5115704;28;20063;-60
2022/10/10 01:17:45;;;;;;;4.93;3.40;;;8.30;99.90;;;;;;5097474;28;20060;-60
2022/10/10 01:20:30;;;;;;;5.68;3.78;;;8.30;99.90;;;;;;5116524;28;20486;-60
2022/10/10 01:23:25;;;;;;;4.70;3.40;;;8.30;99.90;;;;;;5097744;28;20055;-60
2022/10/10 01:26:05;;;;;;;4.20;3.20;;;8.20;99.90;;;;;;5098016;28;20449;-59
2022/10/10 01:28:43;;;;;;;7.80;3.87;;;8.20;99.90;;;;;;5116161;28;20055;-59
2022/10/10 01:31:13;;;;;;;6.13;3.47;;;8.20;99.90;;;;;;5115372;28;20100;-59
2022/10/10 01:33:50;;;;;;;9.48;3.90;;;8.10;99.90;;;;;;5116467;28;20464;-59
2022/10/10 01:36:25;;;;;;;9.50;4.05;;;8.10;99.90;;;;;;5116959;28;20055;-59
2022/10/10 01:38:57;;;;;;;5.90;3.60;;;8.00;99.90;;;;;;5097248;28;20104;-59
2022/10/10 01:41:27;;;;;;;7.15;3.83;;;7.90;99.90;;;;;;5115991;28;20044;-59
2022/10/10 01:43:56;;;;;;;8.68;3.92;;;7.90;99.90;;;;;;5116003;28;20039;-60
2022/10/10 01:46:23;;;;;;;8.25;4.32;;;7.90;99.90;;;;;;5116129;28;20491;-60
2022/10/10 01:48:53;;;;;;;5.22;3.65;;;7.90;99.90;;;;;;5097904;28;20051;-60
2022/10/10 01:51:44;;;;;;;7.20;3.72;;;7.80;99.90;;;;;;5098309;28;20192;-60
2022/10/10 01:54:26;;;;;;;4.95;3.70;;;7.80;99.90;;;;;;5115869;28;20085;-60
2022/10/10 01:57:02;;;;;;;6.28;3.65;;;7.80;99.90;;;;;;5096099;28;20052;-59
2022/10/10 01:59:44;;;;;;;6.75;3.67;;;7.80;99.90;;;;;;5077034;28;20060;-60
2022/10/10 02:02:18;;;;;;;8.20;3.50;;;7.70;99.90;;;;;;5095779;28;20048;-60
2022/10/10 02:04:49;;;;;;;8.20;3.60;;;7.70;99.90;;;;;;5095399;28;20061;-60
2022/10/10 02:07:22;;;;;;;5.72;3.53;;;7.70;99.90;;;;;;5095127;28;20496;-60
2022/10/10 02:09:51;;;;;;;5.90;3.78;;;7.70;99.90;;;;;;5106465;28;20052;-60
2022/10/10 02:12:20;;;;;;;6.35;3.92;;;7.70;99.90;;;;;;5115297;28;20122;-60
2022/10/10 02:14:52;;;;;;;8.13;4.13;;;7.70;99.90;;;;;;5115517;28;20048;-59
2022/10/10 02:17:19;;;;;;;6.82;3.70;;;7.60;99.90;;;;;;5115809;28;20047;-60
2022/10/10 02:19:49;;;;;;;9.68;4.00;;;7.60;99.90;;;;;;5115651;28;20105;-60
2022/10/10 02:22:18;;;;;;;8.93;3.92;;;7.60;99.90;;;;;;5115333;28;20104;-59
2022/10/10 02:24:45;;;;;;;7.72;4.00;;;7.60;99.90;;;;;;5115829;28;20429;-58
2022/10/10 02:27:25;;;;;;;5.68;3.97;;;7.60;99.90;;;;;;5096050;28;20105;-59
2022/10/10 02:29:56;;;;;;;6.63;4.10;;;7.60;99.90;;;;;;5115746;28;20051;-60
2022/10/10 02:32:29;;;;;;;8.00;4.90;;;7.60;99.90;;;;;;5115746;28;20517;-58
2022/10/10 02:34:59;;;;;;;7.63;4.28;;;7.60;99.90;;;;;;5096520;28;20051;-60
2022/10/10 02:37:27;;;;;;;5.05;4.05;;;7.60;99.90;;;;;;5115750;28;20096;-58
2022/10/10 02:40:00;;;;;;;10.73;4.00;;;7.60;99.90;;;;;;5096075;28;20495;-60
2022/10/10 02:42:28;;;;;;;7.10;4.35;;;7.60;99.90;;;;;;5114507;28;20052;-59
2022/10/10 02:44:57;;;;;;;6.07;4.53;;;7.60;99.90;;;;;;5115520;28;20051;-59
2022/10/10 02:47:24;;;;;;;5.60;4.00;;;7.60;99.90;;;;;;5114844;28;20093;-59
2022/10/10 02:49:51;;;;;;;8.10;4.30;;;7.60;99.90;;;;;;5096525;28;20120;-59
2022/10/10 02:52:18;;;;;;;5.65;3.88;;;7.60;99.90;;;;;;5115316;28;20044;-59
2022/10/10 02:54:45;;;;;;;7.03;4.25;;;7.60;99.90;;;;;;5114732;28;20094;-59
2022/10/10 02:57:12;;;;;;;10.55;4.18;;;7.60;99.90;;;;;;5096807;28;20077;-60
2022/10/10 02:59:39;;;;;;;9.45;5.03;;;7.60;99.90;;;;;;5114872;28;20092;-59
2022/10/10 03:02:07;;;;;;;6.25;4.25;;;7.60;99.90;;;;;;5114718;28;20044;-60
2022/10/10 03:04:35;;;;;;;7.45;4.35;;;7.60;99.90;;;;;;5096107;28;20135;-60
2022/10/10 03:07:02;;;;;;;9.35;4.80;;;7.60;99.90;;;;;;5097094;28;20055;-59
2022/10/10 03:09:29;;;;;;;10.70;4.45;;;7.60;99.90;;;;;;5095341;28;20096;-59
2022/10/10 03:11:56;;;;;;;7.78;4.70;;;7.70;99.90;;;;;;5114728;28;20089;-59
2022/10/10 03:14:23;;;;;;;5.57;4.30;;;7.60;99.90;;;;;;5113975;28;20463;-59
2022/10/10 03:16:50;;;;;;;6.55;3.97;;;7.70;99.90;;;;;;5095618;28;20491;-60
2022/10/10 03:19:18;;;;;;;7.72;4.28;;;7.70;99.90;;;;;;5114481;28;20048;-59
2022/10/10 03:21:45;;;;;;;10.93;6.05;;;7.70;99.90;;;;;;5115035;28;20055;-60
2022/10/10 03:24:12;;;;;;;7.25;4.80;;;7.70;99.90;;;;;;5095257;28;20044;-59
2022/10/10 03:26:39;;;;;;;6.18;4.53;;;7.80;99.90;;;;;;5114761;28;20092;-60
2022/10/10 03:29:06;;;;;;;9.30;5.07;;;7.70;99.90;;;;;;5095749;28;20070;-59
2022/10/10 03:31:32;;;;;;;8.18;5.13;;;7.70;99.90;;;;;;5113771;28;20051;-60
2022/10/10 03:33:59;;;;;;;6.50;4.30;;;7.70;99.90;;;;;;5114588;28;20047;-60
2022/10/10 03:36:29;;;;;;;8.80;5.25;;;7.70;99.90;;;;;;5114337;28;20051;-59
2022/10/10 03:38:56;;;;;;;7.15;5.13;;;7.70;99.90;;;;;;5111986;28;20559;-59
2022/10/10 03:41:23;;;;;;;5.95;4.85;;;7.70;99.90;;;;;;5096329;28;20079;-60
2022/10/10 03:43:50;;;;;;;9.45;5.05;;;7.70;99.90;;;;;;5113096;28;20471;-59
2022/10/10 03:46:16;;;;;;;8.88;4.85;;;7.70;99.90;;;;;;5094663;28;20047;-60
2022/10/10 03:48:43;;;;;;;8.23;4.97;;;7.60;99.90;;;;;;5113882;28;20483;-60
2022/10/10 03:51:11;;;;;;;6.13;4.85;;;7.60;99.90;;;;;;5095598;28;20100;-58
2022/10/10 03:53:39;;;;;;;8.05;5.65;;;7.60;99.90;;;;;;5094783;28;20047;-60
2022/10/10 03:56:06;;;;;;;7.85;4.60;;;7.60;99.90;;;;;;5114316;28;20105;-60
2022/10/10 03:58:33;;;;;;;6.90;5.03;;;7.50;99.90;;;;;;5113136;28;20101;-61
2022/10/10 04:01:01;;;;;;;9.15;5.60;;;7.50;99.90;;;;;;5095208;28;20055;-59
2022/10/10 04:03:29;;;;;;;7.53;4.95;;;7.50;99.90;;;;;;5095934;28;20097;-60
2022/10/10 04:05:55;;;;;;;9.80;4.88;;;7.50;99.90;;;;;;5113245;28;20051;-60
2022/10/10 04:08:23;;;;;;;7.40;5.07;;;7.50;99.90;;;;;;5095460;28;20055;-60
2022/10/10 04:10:52;;;;;;;8.68;5.55;;;7.50;99.90;;;;;;5113541;28;20059;-60
2022/10/10 04:13:19;;;;;;;9.55;5.50;;;7.40;99.90;;;;;;5113072;28;20047;-59
2022/10/10 04:15:46;;;;;;;6.40;4.88;;;7.40;99.90;;;;;;5113581;28;20051;-60
2022/10/10 04:18:13;;;;;;;11.30;5.53;;;7.40;99.90;;;;;;5094989;28;20128;-60
2022/10/10 04:20:40;;;;;;;12.00;5.60;;;7.30;99.90;;;;;;5095015;28;20455;-60
2022/10/10 04:23:06;;;;;;;9.63;6.45;;;7.30;99.90;;;;;;5095480;28;20507;-61
2022/10/10 04:25:33;;;;;;;9.10;5.63;;;7.30;99.90;;;;;;5095193;28;20112;-60
2022/10/10 04:28:01;;;;;;;10.20;5.47;;;7.30;99.90;;;;;;5094729;28;20051;-60
2022/10/10 04:30:32;;;;;;;8.05;5.35;;;7.30;99.90;;;;;;5092222;28;20055;-60
2022/10/10 04:32:58;;;;;;;8.35;5.57;;;7.30;99.90;;;;;;5074903;28;20369;-60
2022/10/10 04:35:25;;;;;;;8.43;5.65;;;7.30;99.90;;;;;;5101630;28;20059;-59
2022/10/10 04:37:53;;;;;;;8.95;6.07;;;7.30;99.90;;;;;;5085800;28;20105;-58
2022/10/10 04:40:20;;;;;;;7.65;5.47;;;7.50;99.90;;;;;;5106479;28;20055;-60
2022/10/10 04:42:47;;;;;;;8.55;5.78;;;7.60;99.90;;;;;;5082399;28;20048;-60
2022/10/10 04:45:15;;;;;;;5.97;4.28;;;7.80;99.90;;;;;;5087692;28;20048;-59
2022/10/10 04:47:42;;;;;;;8.63;6.05;;;8.60;99.90;;;;;;5108667;28;20348;-59
2022/10/10 04:50:09;;;;;;;8.43;5.75;;;8.60;99.90;;;;;;5107457;28;20058;-59
2022/10/10 04:52:36;;;;;;;9.63;5.63;;;8.60;99.90;;;;;;5105742;28;20409;-59
2022/10/10 04:55:03;;;;;;;8.40;5.55;;;8.50;99.90;;;;;;5084823;28;20479;-59
2022/10/10 04:57:30;;;;;;;11.38;5.78;;;8.70;99.90;;;;;;5086231;28;20536;-59
2022/10/10 04:59:57;;;;;;;7.95;5.65;;;8.40;99.90;;;;;;5105994;28;20081;-59
2022/10/10 05:02:25;;;;;;;13.82;5.88;;;8.30;99.90;;;;;;5105010;28;20056;-59
2022/10/10 05:04:52;;;;;;;9.77;6.13;;;7.90;99.90;;;;;;5084805;28;20063;-60
2022/10/10 05:07:19;;;;;;;8.82;5.93;;;7.70;99.90;;;;;;5087730;28;20061;-59
2022/10/10 05:09:45;;;;;;;9.15;6.13;;;7.60;99.90;;;;;;5103714;28;20047;-59
2022/10/10 05:12:12;;;;;;;9.90;6.13;;;7.40;99.90;;;;;;5103857;28;20089;-58
2022/10/10 05:14:39;;;;;;;9.25;6.25;;;7.30;99.90;;;;;;5103426;28;20047;-59
2022/10/10 05:17:06;;;;;;;8.98;6.22;;;7.30;99.90;;;;;;5084922;28;20112;-59
2022/10/10 05:19:34;;;;;;;13.63;7.03;;;7.20;99.90;;;;;;5101732;28;20044;-59
2022/10/10 05:22:01;;;;;;;10.10;6.80;;;7.20;99.90;;;;;;5091568;28;20495;-60
2022/10/10 05:24:28;;;;;;;13.43;6.22;;;7.10;99.90;;;;;;5119553;28;20048;-59
2022/10/10 05:26:55;;;;;;;9.85;6.40;;;7.00;99.90;;;;;;5103147;28;20055;-59
2022/10/10 05:29:22;;;;;;;11.77;6.72;;;7.00;99.90;;;;;;5102347;28;20048;-60
2022/10/10 05:31:49;;;;;;;9.27;6.15;;;7.00;99.90;;;;;;5109235;28;20048;-60
2022/10/10 05:34:15;;;;;;;9.10;6.47;;;7.00;99.90;;;;;;5103559;28;20047;-59
2022/10/10 05:36:44;;;;;;;12.00;7.50;;;7.10;99.90;;;;;;5102990;28;20163;-60
2022/10/10 05:39:11;;;;;;;10.45;6.20;;;7.10;99.90;;;;;;5104169;28;20101;-59
2022/10/10 05:41:37;;;;;;;12.18;6.80;;;7.00;99.90;;;;;;5084786;28;20112;-59
2022/10/10 05:44:05;;;;;;;12.60;7.03;;;6.90;99.90;;;;;;5104104;28;20051;-59
2022/10/10 05:46:31;;;;;;;10.07;6.70;;;6.90;99.90;;;;;;5106753;28;20051;-60
2022/10/10 05:48:58;;;;;;;13.88;7.28;;;6.90;99.90;;;;;;5104837;28;20073;-58
2022/10/10 05:51:25;;;;;;;8.52;6.35;;;6.90;99.90;;;;;;5100989;28;20568;-59
2022/10/10 05:53:53;;;;;;;10.45;6.30;;;6.90;99.90;;;;;;5103892;28;20368;-59
2022/10/10 05:56:20;;;;;;;12.73;7.20;;;6.90;99.90;;;;;;5085619;28;20109;-60
2022/10/10 05:58:48;;;;;;;10.00;7.00;;;6.90;99.90;;;;;;5087467;28;20051;-58
2022/10/10 06:01:15;;;;;;;10.93;6.78;;;6.90;99.90;;;;;;5109376;28;20491;-61
2022/10/10 06:03:43;;;;;;;13.77;7.28;;;6.90;99.90;;;;;;5107900;28;20043;-59
2022/10/10 06:06:10;;;;;;;11.15;7.03;;;6.90;99.90;;;;;;5106211;28;20043;-60
2022/10/10 06:08:38;;;;;;;9.60;6.22;;;7.00;99.90;;;;;;5108101;28;20054;-60
2022/10/10 06:11:08;;;;;;;13.50;6.93;;;7.00;99.90;;;;;;5112506;28;20084;-61
2022/10/10 06:13:35;;;;;;;11.93;6.60;;;7.00;99.90;;;;;;5104161;28;20209;-59
2022/10/10 06:16:03;;;;;;;8.93;7.00;;;7.10;99.90;;;;;;5110524;28;20040;-60
2022/10/10 06:18:30;;;;;;;11.30;6.82;;;7.10;99.90;;;;;;5111807;28;20053;-59
2022/10/10 06:21:02;;;;;;;8.65;6.40;;;7.10;99.90;;;;;;5108162;28;20456;-60
2022/10/10 06:23:30;;;;;;;11.13;7.10;;;7.10;99.90;;;;;;5108796;28;20498;-59
2022/10/10 06:25:57;;;;;;;10.68;6.43;;;7.20;99.90;;;;;;5106365;28;20150;-60
2022/10/10 06:28:26;;;;;;;14.85;6.78;;;7.20;99.90;;;;;;5106493;28;20101;-59
2022/10/10 06:30:54;;;;;;;10.00;6.93;;;7.20;99.90;;;;;;5107310;27;20089;-60
2022/10/10 06:33:21;;;;;;;11.93;7.38;;;7.30;99.90;;;;;;5107677;28;20099;-59
2022/10/10 06:35:49;;;;;;;15.65;7.00;;;7.30;99.90;;;;;;5104029;27;20067;-59
2022/10/10 06:38:17;;;;;;;10.98;7.18;;;7.40;99.90;;;;;;5106660;27;20062;-60
2022/10/10 06:40:45;;;;;;;16.90;8.20;;;7.40;99.90;;;;;;5109011;28;20138;-60
2022/10/10 06:43:14;;;;;;;12.85;6.10;;;7.50;99.90;;;;;;5091304;28;20043;-58
2022/10/10 06:45:45;;;;;;;12.98;7.43;;;7.60;99.90;;;;;;5086457;28;20039;-59
2022/10/10 06:48:14;;;;;;;11.63;7.35;;;7.70;99.90;;;;;;5106354;27;20126;-60
2022/10/10 06:50:42;;;;;;;9.15;6.13;;;7.80;99.90;;;;;;5108545;27;20055;-59
2022/10/10 06:53:10;;;;;;;10.98;7.15;;;7.90;99.90;;;;;;5105727;27;20043;-59
2022/10/10 06:55:37;;;;;;;10.52;7.38;;;8.00;99.90;;;;;;5108053;28;20036;-60
2022/10/10 06:58:06;;;;;;;11.82;6.18;;;8.20;99.90;;;;;;5106199;28;20075;-60
2022/10/10 07:00:33;;;;;;;10.73;6.28;;;8.50;99.90;;;;;;5108207;28;20048;-60
2022/10/10 07:03:02;;;;;;;13.00;7.03;;;8.70;99.90;;;;;;5114856;27;20074;-59
2022/10/10 07:05:30;;;;;;;11.85;6.55;;;8.90;99.90;;;;;;5109278;27;20059;-60
2022/10/10 07:07:57;;;;;;;10.48;6.55;;;9.10;99.90;;;;;;5104373;28;20091;-60
2022/10/10 07:10:25;;;;;;;10.20;6.82;;;9.20;99.90;;;;;;5107560;28;20078;-60
2022/10/10 07:12:52;;;;;;;10.05;6.55;;;9.60;99.90;;;;;;5107861;28;20051;-60
2022/10/10 07:15:20;;;;;;;9.85;5.40;;;10.30;99.90;;;;;;5089897;28;20048;-61
2022/10/10 07:17:47;;;;;;;8.43;5.43;;;11.50;99.90;;;;;;5100503;28;20058;-60
2022/10/10 07:20:16;;;;;;;6.93;5.00;;;12.60;99.90;;;;;;5096745;28;20093;-60
2022/10/10 07:22:44;;;;;;;10.90;6.10;;;12.90;99.90;;;;;;5097058;27;20073;-59
2022/10/10 07:25:12;;;;;;;10.77;5.63;;;13.00;99.90;;;;;;5078127;28;20059;-60
2022/10/10 07:27:40;;;;;;;9.13;5.28;;;13.30;99.90;;;;;;5106791;27;20061;-59
2022/10/10 07:30:08;;;;;;;10.18;6.22;;;13.80;99.90;;;;;;5109305;28;20453;-60
2022/10/10 07:32:35;;;;;;;8.35;5.05;;;14.50;99.90;;;;;;5088852;28;20065;-60
2022/10/10 07:35:03;;;;;;;7.20;4.78;;;14.80;99.90;;;;;;5104827;28;20510;-59
2022/10/10 07:37:32;;;;;;;8.65;5.88;;;14.80;99.90;;;;;;5098261;28;20395;-60
2022/10/10 07:40:00;;;;;;;8.70;5.00;;;14.50;99.90;;;;;;5095374;28;20470;-60
2022/10/10 07:42:28;;;;;;;7.00;5.10;;;14.10;99.90;;;;;;5092900;27;20126;-60
2022/10/10 07:44:55;;;;;;;8.10;4.95;;;13.50;99.90;;;;;;5091580;28;20055;-60
2022/10/10 07:47:23;;;;;;;7.47;5.70;;;13.30;99.90;;;;;;5100616;28;20055;-60
2022/10/10 07:49:51;;;;;;;7.72;4.90;;;13.30;99.90;;;;;;5084795;28;20071;-60
2022/10/10 07:52:18;;;;;;;10.55;6.13;;;13.20;99.90;;;;;;5092753;28;20055;-60
2022/10/10 07:54:47;;;;;;;7.30;5.03;;;13.20;99.90;;;;;;5074089;28;20453;-60
2022/10/10 07:57:15;;;;;;;9.25;5.85;;;13.20;99.90;;;;;;5091886;28;20059;-60
2022/10/10 07:59:44;;;;;;;8.20;5.25;;;13.50;99.90;;;;;;5091920;28;20105;-60
2022/10/10 08:02:12;;;;;;;11.80;5.50;;;14.20;99.90;;;;;;5082014;28;20499;-60
2022/10/10 08:04:39;;;;;;;8.77;5.80;;;14.50;99.90;;;;;;5099633;28;20123;-60
2022/10/10 08:07:07;;;;;;;8.48;5.43;;;15.00;99.90;;;;;;5110226;28;20131;-60
2022/10/10 08:09:35;;;;;;;7.95;5.20;;;15.70;99.90;;;;;;5095435;28;20052;-60
2022/10/10 08:12:04;;;;;;;9.35;5.13;;;16.40;99.90;;;;;;5090420;28;20059;-61
2022/10/10 08:14:31;;;;;;;6.65;5.50;;;16.80;99.90;;;;;;5091425;28;20101;-59
2022/10/10 08:16:59;;;;;;;10.90;5.53;;;16.40;99.90;;;;;;5096907;28;20049;-59
2022/10/10 08:19:26;;;;;;;12.70;5.35;;;16.20;99.90;;;;;;5084651;27;20043;-60
2022/10/10 08:21:54;;;;;;;7.30;5.25;;;16.80;99.90;;;;;;5091329;28;20052;-59
2022/10/10 08:24:21;;;;;;;10.95;4.50;;;18.30;99.90;;;;;;5105459;28;20096;-60
2022/10/10 08:26:49;;;;;;;9.27;4.50;;;19.50;99.90;;;;;;5092635;28;20074;-59
2022/10/10 08:29:19;;;;;;;6.18;4.82;;;20.30;98.50;;;;;;5099811;28;20047;-60
2022/10/10 08:31:46;;;;;;;10.88;4.88;;;20.50;95.50;;;;;;5082161;28;20044;-60
2022/10/10 08:34:14;;;;;;;5.97;4.20;;;20.60;96.60;;;;;;5096184;28;20048;-60
2022/10/10 08:36:41;;;;;;;11.02;5.35;;;20.30;95.80;;;;;;5091293;28;20089;-60
2022/10/10 08:39:09;;;;;;;5.88;4.15;;;19.70;95.90;;;;;;5073699;28;20091;-60
2022/10/10 08:41:42;;;;;;;10.02;5.10;;;19.70;96.50;;;;;;5090381;28;20055;-60
2022/10/10 08:44:18;;;;;;;6.72;4.30;;;19.10;96.30;;;;;;5092688;28;20075;-60
2022/10/10 08:46:51;;;;;;;6.85;4.20;;;18.80;96.60;;;;;;5081061;28;20050;-60
2022/10/10 08:49:24;;;;;;;8.88;4.55;;;18.90;97.20;;;;;;5089868;28;20520;-60
2022/10/10 08:51:59;;;;;;;8.82;4.43;;;19.10;96.90;;;;;;5076388;28;20503;-60
2022/10/10 08:54:29;;;;;;;6.68;4.47;;;19.20;96.20;;;;;;5091775;28;20567;-60
2022/10/10 08:57:01;;;;;;;11.13;4.97;;;19.50;96.40;;;;;;5087412;28;20094;-60
2022/10/10 08:59:35;;;;;;;9.10;4.88;;;20.00;95.70;;;;;;5097590;28;20135;-60
2022/10/10 09:02:28;;;;;;;10.45;5.20;;;20.20;95.10;;;;;;5091364;28;20140;-59
2022/10/10 09:04:57;;;;;;;6.45;4.57;;;20.50;94.20;;;;;;5091920;28;20051;-61
2022/10/10 09:07:38;;;;;;;8.43;5.40;;;21.00;94.80;;;;;;5090615;28;20047;-60
2022/10/10 09:10:18;;;;;;;7.93;4.38;;;21.30;93.90;;;;;;5090229;28;20059;-59
2022/10/10 09:12:57;;;;;;;8.65;4.82;;;22.00;93.00;;;;;;5091199;28;20474;-60
2022/10/10 09:15:29;;;;;;;8.18;4.93;;;22.10;91.20;;;;;;5090552;28;20036;-60
2022/10/10 09:18:07;;;;;;;6.78;4.38;;;22.00;92.20;;;;;;5091296;28;20082;-60
2022/10/10 09:20:47;;;;;;;7.25;4.88;;;21.90;92.00;;;;;;5090679;28;20376;-61
2022/10/10 09:23:21;;;;;;;7.10;4.50;;;21.50;91.70;;;;;;5090980;28;20040;-60
2022/10/10 09:25:54;;;;;;;8.43;5.05;;;21.40;92.30;;;;;;5090199;28;20056;-60
2022/10/10 09:28:31;;;;;;;9.10;4.60;;;21.30;92.90;;;;;;5090331;28;20060;-60
2022/10/10 09:31:01;;;;;;;13.35;4.65;;;20.90;92.50;;;;;;5107612;28;20100;-61
2022/10/10 09:33:35;;;;;;;8.98;5.13;;;20.30;93.70;;;;;;5102506;28;20044;-61
2022/10/10 09:36:05;;;;;;;6.78;4.55;;;19.90;94.00;;;;;;5105823;28;20078;-59
2022/10/10 09:38:37;;;;;;;12.55;5.13;;;20.00;94.70;;;;;;5097449;28;20052;-60
2022/10/10 09:41:11;;;;;;;8.02;5.20;;;20.00;94.90;;;;;;5094519;28;20052;-60
2022/10/10 09:43:41;;;;;;;7.45;4.93;;;20.10;94.70;;;;;;5096132;27;20131;-61
2022/10/10 09:46:09;;;;;;;7.37;5.23;;;20.20;94.70;;;;;;5095011;27;20122;-60
2022/10/10 09:48:40;;;;;;;10.25;5.10;;;20.20;95.00;;;;;;5094650;28;20052;-61
2022/10/10 09:51:12;;;;;;;8.23;4.95;;;20.40;94.80;;;;;;5109211;28;20056;-61
2022/10/10 09:53:40;;;;;;;6.22;4.75;;;20.20;94.70;;;;;;5095472;28;20529;-59
2022/10/10 09:56:14;;;;;;;9.82;4.93;;;20.80;94.80;;;;;;5109924;28;20046;-60
2022/10/10 09:58:43;;;;;;;7.28;4.57;;;21.40;94.20;;;;;;5098846;28;20496;-59
2022/10/10 10:01:14;;;;;;;9.35;4.88;;;21.70;93.80;;;;;;5094746;28;20044;-59
2022/10/10 10:03:42;;;;;;;;;;;22.30;93.00;;;;;;5094987;28;20040;-60
2022/10/10 10:06:14;;;;;;;7.50;4.72;;;22.70;91.30;;;;;;5076326;28;19924;-61
2022/10/10 10:08:42;;;;;;;9.77;5.32;;;22.60;92.10;;;;;;5094432;28;20052;-61
2022/10/10 10:11:27;;;;;;;9.77;5.13;;;22.20;92.40;;;;;;5095407;28;20059;-60
2022/10/10 10:13:56;;;;;;;6.70;4.70;;;22.90;91.50;;;;;;5093435;28;20063;-60
2022/10/10 10:16:32;;;;;;;10.73;4.77;;;23.20;91.80;;;;;;5093885;28;20102;-61
2022/10/10 10:19:01;;;;;;;10.15;5.82;;;22.70;90.90;;;;;;5093278;28;20126;-61
2022/10/10 10:21:30;;;;;;;8.17;4.90;;;22.10;92.20;;;;;;5093957;28;20068;-61
2022/10/10 10:24:00;;;;;;;13.02;5.32;;;21.90;92.40;;;;;;5075930;28;20060;-60
2022/10/10 10:26:42;;;;;;;9.27;4.82;;;21.30;92.30;;;;;;5094348;28;20097;-61
2022/10/10 10:29:28;;;;;;;10.55;5.28;;;20.70;93.30;;;;;;5112505;28;20051;-61
2022/10/10 10:32:03;;;;;;;8.15;4.63;;;20.30;94.10;;;;;;5087806;28;20059;-61
2022/10/10 10:34:55;;;;;;;8.13;5.20;;;20.20;95.00;;;;;;5097705;28;20040;-60
2022/10/10 10:37:27;;;;;;;6.72;4.40;;;20.90;95.00;;;;;;5087205;28;20048;-60
2022/10/10 10:40:21;;;;;;;10.00;4.95;;;22.10;93.80;;;;;;5093075;28;20561;-60
2022/10/10 10:43:03;;;;;;;10.25;5.40;;;23.50;91.60;;;;;;5100648;28;20054;-60
2022/10/10 10:45:39;;;;;;;9.93;4.50;;;24.30;90.10;;;;;;5105870;28;20083;-61
2022/10/10 10:48:16;;;;;;;9.95;5.03;;;24.40;89.50;;;;;;5094011;28;20108;-60
2022/10/10 10:50:51;;;;;;;7.00;4.60;;;24.10;89.40;;;;;;5080594;28;20063;-60
2022/10/10 10:53:30;;;;;;;5.57;4.25;;;23.60;90.00;;;;;;5093489;28;20410;-59
2022/10/10 10:56:06;;;;;;;10.27;5.20;;;22.90;90.60;;;;;;5092245;28;20500;-60
2022/10/10 10:58:50;;;;;;;6.63;5.03;;;22.10;91.50;;;;;;5103933;28;20048;-60
2022/10/10 11:01:26;;;;;;;6.32;4.10;;;21.40;92.40;;;;;;5102994;28;20130;-60
2022/10/10 11:04:01;;;;;;;8.35;5.18;;;20.80;93.40;;;;;;5104506;28;20054;-60
2022/10/10 11:06:57;;;;;;;8.23;5.05;;;20.10;94.80;;;;;;5097917;28;20040;-60
2022/10/10 11:09:31;;;;;;;7.03;4.70;;;19.60;96.20;;;;;;5092341;28;20059;-60
2022/10/10 11:12:08;;;;;;;8.38;4.90;;;19.10;97.10;;;;;;5103450;28;20092;-60
2022/10/10 11:14:47;;;;;;;12.25;5.25;;;18.50;98.40;;;;;;5074643;28;20054;-60
2022/10/10 11:17:20;;;;;;;9.85;5.32;;;18.00;99.90;;;;;;5092701;28;20043;-60
2022/10/10 11:19:55;;;;;;;10.88;4.97;;;17.50;99.90;;;;;;5092646;28;20446;-60
2022/10/10 11:22:28;;;;;;;14.20;5.53;;;17.30;99.90;;;;;;5092220;28;20063;-60
2022/10/10 11:25:01;;;;;;;9.15;5.47;;;17.00;99.90;;;;;;5092952;27;20062;-60
2022/10/10 11:27:35;;;;;;;9.48;5.78;;;16.80;99.90;;;;;;5096873;28;20040;-59
2022/10/10 11:30:13;;;;;;;10.63;6.28;;;16.60;99.90;;;;;;5095161;28;20060;-60
2022/10/10 11:32:49;;;;;;;11.38;5.93;;;16.20;99.90;;;;;;5092674;28;20048;-60
2022/10/10 11:35:37;;;;;;;13.30;6.38;;;16.10;99.90;;;;;;5093244;28;20109;-60
2022/10/10 11:38:14;;;;;;;10.07;6.60;;;15.90;99.90;;;;;;5092344;28;20109;-60
2022/10/10 11:40:58;;;;;;;11.82;6.70;;;15.70;99.90;;;;;;5092822;27;20454;-60
2022/10/10 11:43:40;;;;;;;11.20;6.97;;;15.70;99.90;;;;;;5092095;28;20059;-61
2022/10/10 11:46:16;;;;;;;10.90;5.93;;;15.60;99.90;;;;;;5091975;28;20580;-62
2022/10/10 11:48:51;;;;;;;9.52;6.88;;;15.50;99.90;;;;;;5092362;28;20399;-60
2022/10/10 11:51:27;;;;;;;11.40;7.03;;;15.40;99.90;;;;;;5085393;28;20487;-61
2022/10/10 11:54:02;;;;;;;11.00;6.55;;;15.30;99.90;;;;;;5112645;27;20075;-60
2022/10/10 11:56:34;;;;;;;12.68;7.03;;;15.30;99.90;;;;;;5092543;28;20122;-60
2022/10/10 11:59:07;;;;;;;11.65;6.57;;;15.40;99.90;;;;;;5091749;28;20048;-61
2022/10/10 12:01:38;;;;;;;13.32;6.78;;;15.30;99.90;;;;;;5074126;28;20060;-59
2022/10/10 12:04:05;;;;;;;12.85;7.65;;;15.20;99.90;;;;;;5092843;28;20047;-60
2022/10/10 12:06:38;;;;;;;11.88;7.57;;;15.20;99.90;;;;;;5091920;28;20058;-60
2022/10/10 12:09:13;;;;;;;11.25;6.65;;;15.30;99.90;;;;;;5092450;28;20507;-61
2022/10/10 12:11:45;;;;;;;9.10;6.88;;;15.30;99.90;;;;;;5092298;28;20056;-60
2022/10/10 12:14:19;;;;;;;11.98;7.03;;;15.30;99.90;;;;;;5111949;28;20047;-60
2022/10/10 12:16:47;;;;;;;12.13;7.30;;;15.20;99.90;;;;;;5093062;28;20123;-60
2022/10/10 12:19:18;;;;;;;14.32;7.45;;;15.20;99.90;;;;;;5091423;28;20131;-60
2022/10/10 12:21:53;;;;;;;;;;;15.30;99.90;;;;;;5107567;28;20510;-60
2022/10/10 12:24:24;;;;;;;14.98;7.38;;;15.30;99.90;;;;;;5097744;28;19943;-60
2022/10/10 12:27:11;;;;;;;11.82;7.43;;;15.40;99.90;;;;;;5091586;28;20131;-60
2022/10/10 12:29:44;;;;;;;18.80;7.97;;;15.40;99.90;;;;;;5092359;28;20060;-61
2022/10/10 12:32:26;;;;;;;12.88;7.20;;;15.30;99.90;;;;;;5092005;28;20120;-59
2022/10/10 12:35:00;;;;;;;11.85;7.80;;;15.20;99.90;;;;;;5091907;28;20060;-61
2022/10/10 12:37:29;;;;;;;10.00;7.22;;;15.00;99.90;;;;;;5091563;28;20109;-59
2022/10/10 12:40:30;;;;;;;30.35;20.55;;;14.90;99.90;;;;;;5091164;28;20117;-59
2022/10/10 12:43:04;;;;;;;11.27;7.80;;;14.90;99.90;;;;;;5092182;28;20048;-60
2022/10/10 12:46:16;;;;;;;14.35;8.52;;;14.80;99.90;;;;;;5091352;28;20052;-61
2022/10/10 12:48:43;;;;;;;14.32;8.27;;;14.70;99.90;;;;;;5085199;28;20104;-60
2022/10/10 12:51:22;;;;;;;16.13;7.43;;;14.60;99.90;;;;;;5091975;28;20494;-59
2022/10/10 12:53:53;;;;;;;11.48;8.43;;;14.50;99.90;;;;;;5091448;28;20403;-61
2022/10/10 12:56:38;;;;;;;15.82;8.90;;;14.50;99.90;;;;;;5091924;28;20438;-59
2022/10/10 12:59:13;;;;;;;13.90;8.68;;;14.40;99.90;;;;;;5073861;28;20055;-59
2022/10/10 13:01:41;;;;;;;15.73;8.32;;;14.40;99.90;;;;;;5073138;28;20052;-60
2022/10/10 13:04:09;;;;;;;13.70;8.27;;;14.30;99.90;;;;;;5077061;28;20086;-60
2022/10/10 13:06:38;;;;;;;12.65;8.43;;;14.20;99.90;;;;;;5110110;28;20524;-60
2022/10/10 13:09:09;;;;;;;13.65;9.10;;;14.10;99.90;;;;;;5091313;28;20478;-59